createdAt,value
2023-04-19T00:00:12.299Z,8.63
2023-04-19T00:03:15.738Z,6.37
2023-04-19T00:06:18.663Z,6.13
2023-04-19T00:09:21.338Z,7.47
2023-04-19T00:12:25.414Z,6.60
2023-04-19T00:15:28.087Z,7.27
2023-04-19T00:18:30.734Z,8.13
2023-04-19T00:21:33.453Z,7.10
2023-04-19T00:24:36.579Z,8.53
2023-04-19T00:27:40.654Z,7.00
2023-04-19T00:30:43.343Z,6.70
2023-04-19T00:33:46.099Z,5.73
2023-04-19T00:36:48.998Z,7.60
2023-04-19T00:39:51.673Z,10.03
2023-04-19T00:42:55.806Z,7.53
2023-04-19T00:45:58.536Z,7.37
2023-04-19T00:49:02.089Z,7.40
2023-04-19T00:52:05.172Z,7.17
2023-04-19T00:55:09.144Z,7.63
2023-04-19T00:58:13.373Z,8.27
2023-04-19T01:01:16.249Z,7.13
2023-04-19T01:07:42.930Z,7.30
2023-04-19T01:10:45.901Z,10.37
2023-04-19T01:13:50.005Z,7.00
2023-04-19T01:17:23.831Z,9.87
2023-04-19T01:20:26.666Z,10.80
2023-04-19T01:23:30.679Z,8.57
2023-04-19T01:26:33.380Z,9.53
2023-04-19T01:29:36.047Z,10.60
2023-04-19T01:32:38.797Z,9.80
2023-04-19T01:35:41.443Z,10.37
2023-04-19T01:38:47.742Z,9.10
2023-04-19T01:41:50.436Z,7.80
2023-04-19T01:44:53.101Z,9.23
2023-04-19T01:47:56.770Z,7.90
2023-04-19T01:50:59.450Z,7.33
2023-04-19T01:54:03.466Z,8.20
2023-04-19T01:57:06.270Z,8.07
2023-04-19T02:00:15.138Z,10.53
2023-04-19T02:03:17.990Z,11.67
2023-04-19T02:06:20.882Z,11.27
2023-04-19T02:09:25.000Z,9.77
2023-04-19T02:12:28.518Z,8.30
2023-04-19T02:15:31.208Z,6.87
2023-04-19T02:18:35.933Z,7.87
2023-04-19T02:21:38.619Z,9.40
2023-04-19T02:24:44.053Z,7.60
2023-04-19T02:27:46.689Z,9.77
2023-04-19T02:30:49.496Z,8.23
2023-04-19T02:33:52.137Z,8.07
2023-04-19T02:36:54.795Z,7.77
2023-04-19T02:39:58.807Z,10.53
2023-04-19T02:43:01.492Z,8.40
2023-04-19T02:46:04.289Z,9.53
2023-04-19T02:49:06.950Z,9.27
2023-04-19T02:52:09.790Z,10.33
2023-04-19T02:55:13.880Z,10.20
2023-04-19T02:58:16.549Z,9.30
2023-04-19T03:01:19.250Z,9.70
2023-04-19T03:04:22.675Z,8.97
2023-04-19T03:07:25.919Z,8.00
2023-04-19T03:10:30.076Z,10.73
2023-04-19T03:13:32.696Z,29.20
2023-04-19T03:16:35.447Z,9.23
2023-04-19T03:19:38.545Z,10.57
2023-04-19T03:22:41.214Z,10.97
2023-04-19T03:25:46.778Z,12.97
2023-04-19T03:28:49.481Z,11.73
2023-04-19T03:31:52.212Z,14.97
2023-04-19T03:34:54.893Z,11.70
2023-04-19T03:37:57.520Z,8.93
2023-04-19T03:41:01.831Z,10.90
2023-04-19T03:44:04.609Z,9.03
2023-04-19T03:47:07.314Z,11.20
2023-04-19T03:50:10.886Z,12.53
2023-04-19T03:53:13.980Z,10.73
2023-04-19T03:56:17.995Z,10.90
2023-04-19T03:59:20.744Z,14.43
2023-04-19T04:02:23.653Z,14.73
2023-04-19T04:05:28.687Z,11.10
2023-04-19T04:08:31.360Z,10.50
2023-04-19T04:11:35.525Z,12.23
2023-04-19T04:14:38.149Z,12.37
2023-04-19T04:17:40.875Z,11.37
2023-04-19T04:20:44.714Z,11.53
2023-04-19T04:23:49.760Z,9.60
2023-04-19T04:26:53.719Z,12.60
2023-04-19T04:29:56.735Z,11.53
2023-04-19T04:32:59.438Z,12.77
2023-04-19T04:36:02.765Z,15.90
2023-04-19T04:39:06.404Z,20.00
2023-04-19T04:42:10.591Z,16.00
2023-04-19T04:45:13.326Z,19.20
2023-04-19T04:48:16.162Z,11.10
2023-04-19T04:51:18.790Z,13.93
2023-04-19T04:54:21.469Z,11.93
2023-04-19T04:57:25.551Z,11.80
2023-04-19T05:00:29.116Z,12.63
2023-04-19T05:03:31.770Z,11.37
2023-04-19T05:06:34.580Z,12.63
2023-04-19T05:09:37.218Z,14.83
2023-04-19T05:12:42.628Z,13.80
2023-04-19T05:15:45.361Z,14.70
2023-04-19T05:18:48.030Z,15.27
2023-04-19T05:21:50.805Z,13.80
2023-04-19T05:24:53.480Z,17.17
2023-04-19T05:27:57.986Z,18.67
2023-04-19T05:31:00.725Z,18.13
2023-04-19T05:34:03.432Z,14.10
2023-04-19T05:37:06.671Z,13.57
2023-04-19T05:40:10.732Z,14.67
2023-04-19T05:43:14.756Z,12.93
2023-04-19T05:46:17.510Z,13.57
2023-04-19T05:49:20.266Z,14.57
2023-04-19T05:52:22.916Z,12.40
2023-04-19T05:55:25.700Z,17.97
2023-04-19T05:58:29.839Z,15.70
2023-04-19T06:01:33.331Z,20.90
2023-04-19T06:04:36.369Z,15.57
2023-04-19T06:07:43.067Z,19.20
2023-04-19T06:10:55.675Z,18.83
2023-04-19T06:14:03.276Z,14.47
2023-04-19T06:17:05.990Z,16.73
2023-04-19T06:20:10.519Z,13.17
2023-04-19T06:23:14.781Z,11.00
2023-04-19T06:26:17.669Z,15.80
2023-04-19T06:29:23.694Z,14.67
2023-04-19T06:32:26.735Z,14.17
2023-04-19T06:35:29.441Z,13.07
2023-04-19T06:38:32.180Z,16.60
2023-04-19T06:41:34.881Z,15.80
2023-04-19T06:44:38.921Z,20.43
2023-04-19T06:47:41.689Z,12.63
2023-04-19T06:50:44.388Z,11.17
2023-04-19T06:53:47.088Z,12.90
2023-04-19T06:56:51.573Z,11.30
2023-04-19T06:59:56.753Z,15.07
2023-04-19T07:02:59.930Z,14.10
2023-04-19T07:06:03.473Z,11.73
2023-04-19T07:09:08.237Z,12.73
2023-04-19T07:12:10.934Z,11.47
2023-04-19T07:15:15.058Z,13.87
2023-04-19T07:18:17.695Z,10.57
2023-04-19T07:21:20.488Z,14.57
2023-04-19T07:24:23.212Z,13.63
2023-04-19T07:27:26.020Z,12.77
2023-04-19T07:30:30.078Z,14.23
2023-04-19T07:33:33.289Z,18.40
2023-04-19T07:36:37.041Z,16.23
2023-04-19T07:39:39.752Z,10.57
2023-04-19T07:42:44.714Z,11.53
2023-04-19T07:45:48.757Z,12.10
2023-04-19T07:48:51.725Z,14.77
2023-04-19T07:51:54.363Z,17.13
2023-04-19T07:54:57.142Z,14.80
2023-04-19T07:58:02.014Z,13.57
2023-04-19T08:01:07.112Z,15.37
2023-04-19T08:04:10.354Z,13.90
2023-04-19T08:07:13.184Z,14.20
2023-04-19T08:10:16.288Z,19.93
2023-04-19T08:13:19.908Z,15.43
2023-04-19T08:17:05.883Z,17.20
2023-04-19T08:19:46.640Z,17.90
2023-04-19T08:22:49.386Z,14.67
2023-04-19T08:25:52.179Z,14.43
2023-04-19T08:28:54.845Z,15.63
2023-04-19T08:31:58.995Z,13.83
2023-04-19T08:35:01.895Z,12.57
2023-04-19T08:38:05.285Z,13.73
2023-04-19T08:41:07.938Z,12.03
2023-04-19T08:44:12.753Z,11.93
2023-04-19T08:47:29.227Z,11.37
2023-04-19T08:50:40.703Z,15.43
2023-04-19T08:53:52.559Z,13.27
2023-04-19T08:56:55.292Z,11.00
2023-04-19T08:59:58.119Z,14.00
2023-04-19T09:03:02.333Z,11.50
2023-04-19T09:06:05.760Z,15.03
2023-04-19T09:12:27.072Z,12.73
2023-04-19T09:15:38.425Z,12.03
2023-04-19T09:19:05.436Z,14.33
2023-04-19T09:22:14.856Z,17.77
2023-04-19T09:28:32.843Z,10.00
2023-04-19T09:31:50.801Z,17.37
2023-04-19T09:34:58.033Z,15.03
2023-04-19T09:38:06.253Z,14.57
2023-04-19T09:41:10.591Z,15.20
2023-04-19T09:47:25.010Z,17.77
2023-04-19T09:50:29.575Z,15.00
2023-04-19T09:53:35.332Z,15.47
2023-04-19T09:56:40.082Z,19.33
2023-04-19T09:59:42.813Z,11.80
2023-04-19T10:02:55.822Z,11.30
2023-04-19T10:06:06.755Z,14.23
2023-04-19T10:09:15.473Z,9.57
2023-04-19T10:15:49.458Z,13.20
2023-04-19T10:18:54.072Z,10.77
2023-04-19T10:21:58.494Z,11.93
2023-04-19T10:25:15.061Z,12.83
2023-04-19T10:28:17.891Z,10.43
2023-04-19T10:31:23.608Z,12.20
2023-04-19T10:34:38.375Z,11.43
2023-04-19T10:37:42.884Z,10.87
2023-04-19T10:41:00.631Z,8.40
2023-04-19T10:44:11.176Z,11.47
2023-04-19T10:47:14.653Z,12.40
2023-04-19T10:50:18.025Z,11.13
2023-04-19T10:53:48.277Z,8.07
2023-04-19T10:57:12.115Z,8.77
2023-04-19T11:00:21.766Z,9.33
2023-04-19T11:03:54.597Z,6.27
2023-04-19T11:07:01.981Z,11.23
2023-04-19T11:10:07.259Z,4.80
2023-04-19T11:13:09.946Z,5.43
2023-04-19T11:16:13.146Z,4.93
2023-04-19T11:19:16.772Z,5.27
2023-04-19T11:22:19.737Z,6.80
2023-04-19T11:25:24.721Z,5.17
2023-04-19T11:28:27.527Z,6.73
2023-04-19T11:31:32.975Z,4.83
2023-04-19T11:34:39.911Z,4.77
2023-04-19T11:37:42.652Z,4.53
2023-04-19T11:40:46.789Z,6.23
2023-04-19T11:43:49.538Z,5.70
2023-04-19T11:47:03.285Z,4.70
2023-04-19T11:50:31.915Z,5.50
2023-04-19T11:53:34.597Z,10.00
2023-04-19T11:56:57.523Z,4.83
2023-04-19T12:00:10.927Z,5.13
2023-04-19T12:03:14.015Z,11.53
2023-04-19T12:06:18.301Z,8.97
2023-04-19T12:09:24.228Z,11.27
2023-04-19T12:12:34.638Z,4.43
2023-04-19T12:15:43.834Z,4.30
2023-04-19T12:18:48.980Z,6.53
2023-04-19T12:21:51.761Z,6.83
2023-04-19T12:24:55.905Z,7.23
2023-04-19T12:28:00.739Z,18.73
2023-04-19T12:31:04.195Z,6.87
2023-04-19T12:34:06.900Z,4.30
2023-04-19T12:37:09.602Z,4.93
2023-04-19T12:40:13.974Z,3.10
2023-04-19T12:43:18.044Z,4.90
2023-04-19T12:46:21.573Z,3.20
2023-04-19T12:49:24.816Z,3.27
2023-04-19T12:52:27.729Z,3.33
2023-04-19T12:55:30.436Z,5.03
2023-04-19T12:58:34.596Z,5.43
2023-04-19T13:01:37.395Z,4.03
2023-04-19T13:04:40.754Z,1.87
2023-04-19T13:07:43.636Z,3.43
2023-04-19T13:10:46.393Z,5.97
2023-04-19T13:13:52.186Z,2.47
2023-04-19T13:16:55.125Z,4.70
2023-04-19T13:19:58.315Z,3.83
2023-04-19T13:23:01.079Z,3.37
2023-04-19T13:26:03.882Z,3.07
2023-04-19T13:29:08.631Z,1.67
2023-04-19T13:32:12.598Z,2.80
2023-04-19T13:35:15.457Z,1.67
2023-04-19T13:38:18.156Z,2.80
2023-04-19T13:41:21.079Z,2.27
2023-04-19T13:44:25.619Z,1.67
2023-04-19T13:47:28.400Z,3.63
2023-04-19T13:50:31.104Z,9.47
2023-04-19T13:53:33.797Z,1.80
2023-04-19T13:56:36.496Z,2.93
2023-04-19T13:59:40.713Z,4.57
2023-04-19T14:02:44.933Z,3.97
2023-04-19T14:05:47.645Z,1.40
2023-04-19T14:08:51.427Z,2.13
2023-04-19T14:11:54.363Z,3.13
2023-04-19T14:14:58.446Z,2.50
2023-04-19T14:18:01.693Z,2.10
2023-04-19T14:21:05.198Z,8.50
2023-04-19T14:24:08.087Z,5.77
2023-04-19T14:27:11.791Z,8.80
2023-04-19T14:30:16.524Z,1.93
2023-04-19T14:33:19.219Z,3.13
2023-04-19T14:36:21.886Z,3.73
2023-04-19T14:39:24.575Z,1.57
2023-04-19T14:42:27.800Z,3.60
2023-04-19T14:45:31.894Z,4.67
2023-04-19T14:48:34.587Z,9.23
2023-04-19T14:51:37.256Z,1.80
2023-04-19T14:54:39.941Z,2.50
2023-04-19T14:57:42.665Z,1.60
2023-04-19T15:00:46.664Z,2.03
2023-04-19T15:03:50.046Z,1.47
2023-04-19T15:06:52.987Z,1.13
2023-04-19T15:09:55.675Z,1.80
2023-04-19T15:12:58.830Z,4.27
2023-04-19T15:16:04.939Z,1.67
2023-04-19T15:19:08.333Z,2.07
2023-04-19T15:22:11.205Z,1.53
2023-04-19T15:25:16.133Z,2.97
2023-04-19T15:28:18.941Z,1.73
2023-04-19T15:31:23.462Z,2.90
2023-04-19T15:34:26.270Z,3.77
2023-04-19T15:37:28.929Z,2.10
2023-04-19T15:40:31.858Z,2.37
2023-04-19T15:43:34.610Z,4.23
2023-04-19T15:46:38.635Z,1.57
2023-04-19T15:49:41.394Z,3.23
2023-04-19T15:52:44.007Z,4.30
2023-04-19T15:55:48.172Z,3.23
2023-04-19T15:58:50.806Z,2.67
2023-04-19T16:01:55.026Z,2.07
2023-04-19T16:04:57.870Z,2.73
2023-04-19T16:08:05.547Z,2.63
2023-04-19T16:11:08.352Z,4.00
2023-04-19T16:14:11.107Z,4.53
2023-04-19T16:17:15.101Z,12.57
2023-04-19T16:20:18.212Z,2.03
2023-04-19T16:23:21.527Z,3.07
2023-04-19T16:26:24.408Z,9.27
2023-04-19T16:29:27.953Z,4.93
2023-04-19T16:32:32.344Z,6.70
2023-04-19T16:35:35.634Z,5.50
2023-04-19T16:38:38.277Z,5.37
2023-04-19T16:41:40.974Z,5.73
2023-04-19T16:44:43.644Z,6.40
2023-04-19T16:47:48.202Z,4.43
2023-04-19T16:50:51.289Z,3.90
2023-04-19T16:53:53.936Z,5.77
2023-04-19T16:56:56.938Z,4.63
2023-04-19T16:59:59.804Z,4.20
2023-04-19T17:03:04.129Z,3.27
2023-04-19T17:06:07.928Z,4.83
2023-04-19T17:09:10.648Z,3.30
2023-04-19T17:12:13.357Z,3.20
2023-04-19T17:15:16.407Z,4.63
2023-04-19T17:18:20.690Z,4.00
2023-04-19T17:21:23.443Z,3.93
2023-04-19T17:24:26.735Z,4.37
2023-04-19T17:27:29.400Z,3.40
2023-04-19T17:30:32.948Z,3.93
2023-04-19T17:33:37.928Z,4.83
2023-04-19T17:36:42.079Z,3.70
2023-04-19T17:39:44.777Z,3.70
2023-04-19T17:42:47.450Z,3.90
2023-04-19T17:45:50.228Z,3.10
2023-04-19T17:48:55.434Z,3.50
2023-04-19T17:51:58.932Z,3.83
2023-04-19T17:55:02.375Z,5.10
2023-04-19T17:58:05.945Z,3.13
2023-04-19T18:01:10.191Z,4.37
2023-04-19T18:04:17.821Z,4.23
2023-04-19T18:07:20.864Z,7.83
2023-04-19T18:10:23.781Z,13.57
2023-04-19T18:13:26.606Z,7.23
2023-04-19T18:16:29.591Z,6.93
2023-04-19T18:19:33.946Z,5.50
2023-04-19T18:22:36.573Z,8.03
2023-04-19T18:25:39.678Z,13.03
2023-04-19T18:28:42.350Z,7.63
2023-04-19T18:31:45.116Z,4.90
2023-04-19T18:34:49.116Z,11.53
2023-04-19T18:37:51.846Z,11.03
2023-04-19T18:40:54.571Z,11.03
2023-04-19T18:47:04.147Z,9.37
2023-04-19T18:50:09.885Z,6.23
2023-04-19T18:53:12.979Z,6.13
2023-04-19T18:56:16.793Z,8.47
2023-04-19T18:59:19.907Z,7.67
2023-04-19T19:02:22.717Z,3.03
2023-04-19T19:05:27.229Z,4.53
2023-04-19T19:08:30.024Z,6.47
2023-04-19T19:14:38.976Z,11.67
2023-04-19T19:17:42.583Z,24.67
2023-04-19T19:20:46.631Z,10.60
2023-04-19T19:23:49.984Z,15.83
2023-04-19T19:26:52.696Z,12.20
2023-04-19T19:29:55.665Z,20.47
2023-04-19T19:32:58.682Z,15.43
2023-04-19T19:36:02.997Z,16.17
2023-04-19T19:39:05.663Z,15.83
2023-04-19T19:42:08.449Z,19.93
2023-04-19T19:45:11.606Z,11.90
2023-04-19T19:48:14.482Z,10.93
2023-04-19T19:51:41.568Z,11.33
2023-04-19T19:54:42.028Z,10.03
2023-04-19T20:00:52.760Z,8.93
2023-04-19T20:03:56.410Z,5.33
2023-04-19T20:10:08.195Z,6.17
2023-04-19T20:13:13.263Z,4.67
2023-04-19T20:16:18.717Z,10.10
2023-04-19T20:19:21.603Z,6.23
2023-04-19T20:22:25.872Z,10.40
2023-04-19T20:25:28.610Z,4.47
2023-04-19T20:28:31.392Z,8.77
2023-04-19T20:31:34.142Z,11.47
2023-04-19T20:34:37.801Z,7.90
2023-04-19T20:37:41.918Z,11.73
2023-04-19T20:40:44.775Z,16.63
2023-04-19T20:43:47.465Z,8.10
2023-04-19T20:46:51.028Z,10.30
2023-04-19T20:49:53.794Z,9.40
2023-04-19T20:52:58.219Z,12.83
2023-04-19T20:56:02.735Z,12.17
2023-04-19T20:59:05.625Z,12.97
2023-04-19T21:02:09.244Z,11.43
2023-04-19T21:05:12.187Z,9.23
2023-04-19T21:08:18.336Z,8.83
2023-04-19T21:11:20.984Z,8.10
2023-04-19T21:14:23.875Z,10.20
2023-04-19T21:17:26.744Z,18.17
2023-04-19T21:20:29.724Z,19.80
2023-04-19T21:23:34.391Z,8.07
2023-04-19T21:26:37.268Z,7.87
2023-04-19T21:29:40.053Z,6.90
2023-04-19T21:32:42.781Z,5.33
2023-04-19T21:35:45.467Z,7.17
2023-04-19T21:38:49.494Z,10.73
2023-04-19T21:41:52.196Z,6.20
2023-04-19T21:44:54.845Z,8.87
2023-04-19T21:47:57.497Z,10.13
2023-04-19T21:51:01.107Z,7.20
2023-04-19T21:54:05.292Z,5.30
2023-04-19T21:57:09.193Z,7.80
2023-04-19T22:00:14.036Z,6.17
2023-04-19T22:03:17.242Z,5.93
2023-04-19T22:06:21.857Z,7.47
2023-04-19T22:09:26.004Z,6.33
2023-04-19T22:12:28.807Z,5.03
2023-04-19T22:15:31.902Z,7.80
2023-04-19T22:18:35.738Z,4.53
2023-04-19T22:21:38.557Z,5.27
2023-04-19T22:24:56.103Z,4.83
2023-04-19T22:28:00.356Z,9.23
2023-04-19T22:31:03.899Z,8.10
2023-04-19T22:34:06.597Z,11.93
2023-04-19T22:37:09.293Z,16.13
2023-04-19T22:40:14.209Z,11.50
2023-04-19T22:43:17.032Z,8.53
2023-04-19T22:46:19.715Z,7.40
2023-04-19T22:49:25.454Z,4.70
2023-04-19T22:52:28.167Z,9.13
2023-04-19T22:55:32.296Z,6.93
2023-04-19T22:58:34.936Z,12.67
2023-04-19T23:01:38.198Z,6.30
2023-04-19T23:04:41.208Z,8.30
2023-04-19T23:07:45.173Z,6.77
2023-04-19T23:10:50.921Z,6.13
2023-04-19T23:13:54.102Z,6.93
2023-04-19T23:16:57.117Z,5.63
2023-04-19T23:20:00.238Z,6.70
2023-04-19T23:23:02.950Z,8.73
2023-04-19T23:26:07.112Z,9.60
2023-04-19T23:29:09.745Z,8.17
2023-04-19T23:32:12.582Z,6.43
2023-04-19T23:35:15.318Z,6.73
2023-04-19T23:38:18.786Z,8.57
2023-04-19T23:41:23.940Z,6.33
2023-04-19T23:44:27.301Z,5.90
2023-04-19T23:47:30.058Z,4.80
2023-04-19T23:50:33.620Z,5.90
2023-04-19T23:53:36.344Z,6.77
2023-04-19T23:56:40.393Z,9.77
2023-04-19T23:59:43.069Z,9.67
